sensor_id;sensor_type;location;lat;lon;timestamp;P1;durP1;ratioP1;P2;durP2;ratioP2
41333;SDS011;27078;46.428;6.256;2023-08-07T00:01:50;3.88;;;1.05;;
41333;SDS011;27078;46.428;6.256;2023-08-07T00:04:16;3.38;;;1.10;;
41333;SDS011;27078;46.428;6.256;2023-08-07T00:06:41;4.60;;;1.10;;
41333;SDS011;27078;46.428;6.256;2023-08-07T00:09:06;2.22;;;0.88;;
41333;SDS011;27078;46.428;6.256;2023-08-07T00:11:32;1.80;;;1.08;;
41333;SDS011;27078;46.428;6.256;2023-08-07T00:13:57;3.13;;;1.00;;
41333;SDS011;27078;46.428;6.256;2023-08-07T00:16:24;2.13;;;0.88;;
41333;SDS011;27078;46.428;6.256;2023-08-07T00:18:49;2.15;;;1.10;;
41333;SDS011;27078;46.428;6.256;2023-08-07T00:21:17;2.70;;;1.00;;
41333;SDS011;27078;46.428;6.256;2023-08-07T00:23:42;2.38;;;0.80;;
41333;SDS011;27078;46.428;6.256;2023-08-07T00:26:08;2.88;;;1.00;;
41333;SDS011;27078;46.428;6.256;2023-08-07T00:28:33;1.80;;;0.80;;
41333;SDS011;27078;46.428;6.256;2023-08-07T00:30:58;1.52;;;0.82;;
41333;SDS011;27078;46.428;6.256;2023-08-07T00:33:24;2.67;;;1.00;;
41333;SDS011;27078;46.428;6.256;2023-08-07T00:35:49;2.83;;;0.88;;
41333;SDS011;27078;46.428;6.256;2023-08-07T00:38:14;2.20;;;0.95;;
41333;SDS011;27078;46.428;6.256;2023-08-07T00:40:40;2.25;;;0.82;;
41333;SDS011;27078;46.428;6.256;2023-08-07T00:43:05;2.33;;;1.00;;
41333;SDS011;27078;46.428;6.256;2023-08-07T00:45:35;2.40;;;0.90;;
41333;SDS011;27078;46.428;6.256;2023-08-07T00:48:06;2.33;;;1.00;;
41333;SDS011;27078;46.428;6.256;2023-08-07T00:50:32;3.72;;;0.88;;
41333;SDS011;27078;46.428;6.256;2023-08-07T00:52:58;2.67;;;1.00;;
41333;SDS011;27078;46.428;6.256;2023-08-07T00:55:24;3.22;;;0.90;;
41333;SDS011;27078;46.428;6.256;2023-08-07T00:57:49;2.50;;;0.90;;
41333;SDS011;27078;46.428;6.256;2023-08-07T01:00:15;2.30;;;0.90;;
41333;SDS011;27078;46.428;6.256;2023-08-07T01:02:41;2.20;;;0.90;;
41333;SDS011;27078;46.428;6.256;2023-08-07T01:05:07;2.63;;;0.80;;
41333;SDS011;27078;46.428;6.256;2023-08-07T01:07:32;3.60;;;0.73;;
41333;SDS011;27078;46.428;6.256;2023-08-07T01:09:57;3.15;;;0.85;;
41333;SDS011;27078;46.428;6.256;2023-08-07T01:12:29;1.65;;;1.00;;
41333;SDS011;27078;46.428;6.256;2023-08-07T01:15:12;2.05;;;0.90;;
41333;SDS011;27078;46.428;6.256;2023-08-07T01:17:41;2.03;;;0.90;;
41333;SDS011;27078;46.428;6.256;2023-08-07T01:20:09;2.05;;;0.82;;
41333;SDS011;27078;46.428;6.256;2023-08-07T01:22:34;2.05;;;0.70;;
41333;SDS011;27078;46.428;6.256;2023-08-07T01:25:00;2.60;;;0.80;;
41333;SDS011;27078;46.428;6.256;2023-08-07T01:30:33;2.10;;;1.10;;
41333;SDS011;27078;46.428;6.256;2023-08-07T01:35:48;2.85;;;0.98;;
41333;SDS011;27078;46.428;6.256;2023-08-07T01:38:18;2.70;;;0.90;;
41333;SDS011;27078;46.428;6.256;2023-08-07T01:40:46;2.85;;;0.90;;
41333;SDS011;27078;46.428;6.256;2023-08-07T01:43:13;1.73;;;0.73;;
41333;SDS011;27078;46.428;6.256;2023-08-07T01:45:39;2.40;;;1.00;;
41333;SDS011;27078;46.428;6.256;2023-08-07T01:48:04;2.75;;;0.90;;
41333;SDS011;27078;46.428;6.256;2023-08-07T01:50:30;2.97;;;1.17;;
41333;SDS011;27078;46.428;6.256;2023-08-07T01:52:55;3.17;;;0.82;;
41333;SDS011;27078;46.428;6.256;2023-08-07T01:55:21;3.13;;;1.00;;
41333;SDS011;27078;46.428;6.256;2023-08-07T01:57:47;2.08;;;0.65;;
41333;SDS011;27078;46.428;6.256;2023-08-07T02:00:12;1.60;;;1.00;;
41333;SDS011;27078;46.428;6.256;2023-08-07T02:02:38;2.42;;;0.90;;
41333;SDS011;27078;46.428;6.256;2023-08-07T02:05:03;1.50;;;0.90;;
41333;SDS011;27078;46.428;6.256;2023-08-07T02:07:29;1.83;;;0.75;;
41333;SDS011;27078;46.428;6.256;2023-08-07T02:09:55;2.40;;;0.80;;
41333;SDS011;27078;46.428;6.256;2023-08-07T02:12:20;2.85;;;0.93;;
41333;SDS011;27078;46.428;6.256;2023-08-07T02:14:46;4.43;;;1.00;;
41333;SDS011;27078;46.428;6.256;2023-08-07T02:17:11;3.35;;;1.00;;
41333;SDS011;27078;46.428;6.256;2023-08-07T02:19:36;1.58;;;0.82;;
41333;SDS011;27078;46.428;6.256;2023-08-07T02:22:02;3.70;;;0.80;;
41333;SDS011;27078;46.428;6.256;2023-08-07T02:24:28;2.38;;;0.80;;
41333;SDS011;27078;46.428;6.256;2023-08-07T02:26:53;3.13;;;0.80;;
41333;SDS011;27078;46.428;6.256;2023-08-07T02:29:18;1.67;;;0.77;;
41333;SDS011;27078;46.428;6.256;2023-08-07T02:31:44;3.15;;;0.93;;
41333;SDS011;27078;46.428;6.256;2023-08-07T02:34:09;4.45;;;1.00;;
41333;SDS011;27078;46.428;6.256;2023-08-07T02:36:34;2.00;;;0.88;;
41333;SDS011;27078;46.428;6.256;2023-08-07T02:39:00;3.60;;;0.80;;
41333;SDS011;27078;46.428;6.256;2023-08-07T02:41:25;2.45;;;0.75;;
41333;SDS011;27078;46.428;6.256;2023-08-07T02:43:50;3.05;;;0.90;;
41333;SDS011;27078;46.428;6.256;2023-08-07T02:46:16;1.70;;;0.80;;
41333;SDS011;27078;46.428;6.256;2023-08-07T02:48:43;1.73;;;0.80;;
41333;SDS011;27078;46.428;6.256;2023-08-07T02:51:09;2.30;;;0.90;;
41333;SDS011;27078;46.428;6.256;2023-08-07T02:53:35;2.65;;;1.05;;
41333;SDS011;27078;46.428;6.256;2023-08-07T02:56:00;2.67;;;1.00;;
41333;SDS011;27078;46.428;6.256;2023-08-07T02:58:25;3.08;;;1.13;;
41333;SDS011;27078;46.428;6.256;2023-08-07T03:00:51;2.17;;;0.80;;
41333;SDS011;27078;46.428;6.256;2023-08-07T03:03:16;1.38;;;0.65;;
41333;SDS011;27078;46.428;6.256;2023-08-07T03:05:48;1.55;;;0.80;;
41333;SDS011;27078;46.428;6.256;2023-08-07T03:08:15;2.92;;;0.82;;
41333;SDS011;27078;46.428;6.256;2023-08-07T03:10:40;1.77;;;0.70;;
41333;SDS011;27078;46.428;6.256;2023-08-07T03:13:05;3.97;;;1.02;;
41333;SDS011;27078;46.428;6.256;2023-08-07T03:15:31;2.63;;;0.70;;
41333;SDS011;27078;46.428;6.256;2023-08-07T03:17:56;1.50;;;0.60;;
41333;SDS011;27078;46.428;6.256;2023-08-07T03:20:21;2.78;;;0.70;;
41333;SDS011;27078;46.428;6.256;2023-08-07T03:22:47;1.95;;;0.80;;
41333;SDS011;27078;46.428;6.256;2023-08-07T03:25:12;2.17;;;0.73;;
41333;SDS011;27078;46.428;6.256;2023-08-07T03:27:37;2.38;;;0.80;;
41333;SDS011;27078;46.428;6.256;2023-08-07T03:30:03;2.30;;;0.70;;
41333;SDS011;27078;46.428;6.256;2023-08-07T03:32:28;1.40;;;0.60;;
41333;SDS011;27078;46.428;6.256;2023-08-07T03:34:54;2.65;;;0.70;;
41333;SDS011;27078;46.428;6.256;2023-08-07T03:37:19;2.75;;;0.70;;
41333;SDS011;27078;46.428;6.256;2023-08-07T03:39:44;2.78;;;0.80;;
41333;SDS011;27078;46.428;6.256;2023-08-07T03:42:13;1.15;;;0.60;;
41333;SDS011;27078;46.428;6.256;2023-08-07T03:44:39;1.50;;;0.70;;
41333;SDS011;27078;46.428;6.256;2023-08-07T03:47:05;1.25;;;0.50;;
41333;SDS011;27078;46.428;6.256;2023-08-07T03:49:30;1.10;;;0.50;;
41333;SDS011;27078;46.428;6.256;2023-08-07T03:51:55;3.28;;;0.60;;
41333;SDS011;27078;46.428;6.256;2023-08-07T03:54:21;1.58;;;0.60;;
41333;SDS011;27078;46.428;6.256;2023-08-07T03:56:46;3.45;;;0.68;;
41333;SDS011;27078;46.428;6.256;2023-08-07T03:59:13;2.28;;;0.55;;
41333;SDS011;27078;46.428;6.256;2023-08-07T04:01:38;1.58;;;0.70;;
41333;SDS011;27078;46.428;6.256;2023-08-07T04:04:03;1.77;;;0.82;;
41333;SDS011;27078;46.428;6.256;2023-08-07T04:06:29;2.45;;;0.60;;
41333;SDS011;27078;46.428;6.256;2023-08-07T04:08:54;1.75;;;0.68;;
41333;SDS011;27078;46.428;6.256;2023-08-07T04:11:19;2.03;;;0.63;;
41333;SDS011;27078;46.428;6.256;2023-08-07T04:13:45;1.85;;;0.63;;
41333;SDS011;27078;46.428;6.256;2023-08-07T04:16:10;2.45;;;0.60;;
41333;SDS011;27078;46.428;6.256;2023-08-07T04:18:35;1.85;;;0.75;;
41333;SDS011;27078;46.428;6.256;2023-08-07T04:21:01;2.03;;;0.60;;
41333;SDS011;27078;46.428;6.256;2023-08-07T04:23:26;1.77;;;0.60;;
41333;SDS011;27078;46.428;6.256;2023-08-07T04:25:52;2.65;;;0.60;;
41333;SDS011;27078;46.428;6.256;2023-08-07T04:28:18;2.50;;;0.70;;
41333;SDS011;27078;46.428;6.256;2023-08-07T04:30:44;1.17;;;0.50;;
41333;SDS011;27078;46.428;6.256;2023-08-07T04:33:13;1.77;;;0.70;;
41333;SDS011;27078;46.428;6.256;2023-08-07T04:35:39;2.28;;;0.60;;
41333;SDS011;27078;46.428;6.256;2023-08-07T04:38:04;1.63;;;0.70;;
41333;SDS011;27078;46.428;6.256;2023-08-07T04:40:30;1.80;;;0.70;;
41333;SDS011;27078;46.428;6.256;2023-08-07T04:42:55;2.03;;;0.70;;
41333;SDS011;27078;46.428;6.256;2023-08-07T04:45:21;3.60;;;0.68;;
41333;SDS011;27078;46.428;6.256;2023-08-07T04:47:46;1.30;;;0.68;;
41333;SDS011;27078;46.428;6.256;2023-08-07T04:50:12;1.38;;;0.70;;
41333;SDS011;27078;46.428;6.256;2023-08-07T04:52:37;1.05;;;0.60;;
41333;SDS011;27078;46.428;6.256;2023-08-07T04:55:03;1.77;;;0.60;;
41333;SDS011;27078;46.428;6.256;2023-08-07T04:57:29;1.52;;;0.90;;
41333;SDS011;27078;46.428;6.256;2023-08-07T04:59:54;2.15;;;0.68;;
41333;SDS011;27078;46.428;6.256;2023-08-07T05:02:20;1.42;;;0.70;;
41333;SDS011;27078;46.428;6.256;2023-08-07T05:04:45;2.45;;;0.82;;
41333;SDS011;27078;46.428;6.256;2023-08-07T05:07:10;2.03;;;0.60;;
41333;SDS011;27078;46.428;6.256;2023-08-07T05:09:36;2.10;;;0.60;;
41333;SDS011;27078;46.428;6.256;2023-08-07T05:12:01;1.38;;;0.52;;
41333;SDS011;27078;46.428;6.256;2023-08-07T05:14:28;2.85;;;0.70;;
41333;SDS011;27078;46.428;6.256;2023-08-07T05:16:54;1.20;;;0.70;;
41333;SDS011;27078;46.428;6.256;2023-08-07T05:19:19;1.60;;;0.60;;
41333;SDS011;27078;46.428;6.256;2023-08-07T05:21:45;1.73;;;0.60;;
41333;SDS011;27078;46.428;6.256;2023-08-07T05:24:14;1.83;;;0.40;;
41333;SDS011;27078;46.428;6.256;2023-08-07T05:26:40;1.20;;;0.60;;
41333;SDS011;27078;46.428;6.256;2023-08-07T05:29:05;2.17;;;0.70;;
41333;SDS011;27078;46.428;6.256;2023-08-07T05:31:32;1.23;;;0.60;;
41333;SDS011;27078;46.428;6.256;2023-08-07T05:33:57;1.65;;;0.60;;
41333;SDS011;27078;46.428;6.256;2023-08-07T05:36:22;1.35;;;0.60;;
41333;SDS011;27078;46.428;6.256;2023-08-07T05:38:48;5.22;;;0.75;;
41333;SDS011;27078;46.428;6.256;2023-08-07T05:41:13;1.55;;;0.60;;
41333;SDS011;27078;46.428;6.256;2023-08-07T05:43:38;4.20;;;0.73;;
41333;SDS011;27078;46.428;6.256;2023-08-07T05:46:03;2.15;;;0.80;;
41333;SDS011;27078;46.428;6.256;2023-08-07T05:48:29;2.33;;;0.75;;
41333;SDS011;27078;46.428;6.256;2023-08-07T05:50:54;1.23;;;0.57;;
41333;SDS011;27078;46.428;6.256;2023-08-07T05:53:20;1.70;;;0.70;;
41333;SDS011;27078;46.428;6.256;2023-08-07T05:55:45;2.70;;;0.70;;
41333;SDS011;27078;46.428;6.256;2023-08-07T05:58:10;2.28;;;0.70;;
41333;SDS011;27078;46.428;6.256;2023-08-07T06:00:36;3.47;;;0.85;;
41333;SDS011;27078;46.428;6.256;2023-08-07T06:03:01;2.97;;;0.77;;
41333;SDS011;27078;46.428;6.256;2023-08-07T06:05:27;3.95;;;0.80;;
41333;SDS011;27078;46.428;6.256;2023-08-07T06:07:52;2.90;;;0.95;;
41333;SDS011;27078;46.428;6.256;2023-08-07T06:10:17;2.22;;;0.77;;
41333;SDS011;27078;46.428;6.256;2023-08-07T06:12:42;1.38;;;0.70;;
41333;SDS011;27078;46.428;6.256;2023-08-07T06:15:08;3.15;;;0.80;;
41333;SDS011;27078;46.428;6.256;2023-08-07T06:17:34;3.67;;;0.90;;
41333;SDS011;27078;46.428;6.256;2023-08-07T06:19:59;2.30;;;0.90;;
41333;SDS011;27078;46.428;6.256;2023-08-07T06:22:25;3.58;;;0.75;;
41333;SDS011;27078;46.428;6.256;2023-08-07T06:24:50;2.55;;;0.82;;
41333;SDS011;27078;46.428;6.256;2023-08-07T06:27:15;2.65;;;0.80;;
41333;SDS011;27078;46.428;6.256;2023-08-07T06:29:41;2.67;;;0.98;;
41333;SDS011;27078;46.428;6.256;2023-08-07T06:32:06;2.63;;;0.63;;
41333;SDS011;27078;46.428;6.256;2023-08-07T06:34:32;2.55;;;0.77;;
41333;SDS011;27078;46.428;6.256;2023-08-07T06:36:57;2.17;;;0.82;;
41333;SDS011;27078;46.428;6.256;2023-08-07T06:39:22;2.47;;;0.98;;
41333;SDS011;27078;46.428;6.256;2023-08-07T06:41:48;1.50;;;0.80;;
41333;SDS011;27078;46.428;6.256;2023-08-07T06:44:13;2.90;;;0.73;;
41333;SDS011;27078;46.428;6.256;2023-08-07T06:46:38;3.45;;;1.17;;
41333;SDS011;27078;46.428;6.256;2023-08-07T06:49:04;2.58;;;0.90;;
41333;SDS011;27078;46.428;6.256;2023-08-07T06:51:29;2.42;;;0.90;;
41333;SDS011;27078;46.428;6.256;2023-08-07T06:53:55;2.03;;;0.88;;
41333;SDS011;27078;46.428;6.256;2023-08-07T06:56:20;4.25;;;0.90;;
41333;SDS011;27078;46.428;6.256;2023-08-07T06:58:46;3.63;;;1.00;;
41333;SDS011;27078;46.428;6.256;2023-08-07T07:01:11;1.95;;;0.77;;
41333;SDS011;27078;46.428;6.256;2023-08-07T07:03:37;2.30;;;0.88;;
41333;SDS011;27078;46.428;6.256;2023-08-07T07:06:02;2.92;;;1.13;;
41333;SDS011;27078;46.428;6.256;2023-08-07T07:08:27;2.38;;;0.88;;
41333;SDS011;27078;46.428;6.256;2023-08-07T07:10:53;5.38;;;0.90;;
41333;SDS011;27078;46.428;6.256;2023-08-07T07:13:18;2.75;;;0.85;;
41333;SDS011;27078;46.428;6.256;2023-08-07T07:15:43;2.72;;;0.60;;
41333;SDS011;27078;46.428;6.256;2023-08-07T07:18:09;2.33;;;0.80;;
41333;SDS011;27078;46.428;6.256;2023-08-07T07:20:34;1.45;;;0.60;;
41333;SDS011;27078;46.428;6.256;2023-08-07T07:22:59;1.88;;;0.55;;
41333;SDS011;27078;46.428;6.256;2023-08-07T07:25:25;3.17;;;0.85;;
41333;SDS011;27078;46.428;6.256;2023-08-07T07:27:50;1.90;;;0.80;;
41333;SDS011;27078;46.428;6.256;2023-08-07T07:30:16;3.00;;;0.93;;
41333;SDS011;27078;46.428;6.256;2023-08-07T07:32:41;3.40;;;0.70;;
41333;SDS011;27078;46.428;6.256;2023-08-07T07:35:07;3.03;;;0.70;;
41333;SDS011;27078;46.428;6.256;2023-08-07T07:37:33;1.88;;;0.60;;
41333;SDS011;27078;46.428;6.256;2023-08-07T07:39:58;2.20;;;0.65;;
41333;SDS011;27078;46.428;6.256;2023-08-07T07:42:24;1.55;;;0.60;;
41333;SDS011;27078;46.428;6.256;2023-08-07T07:44:49;1.73;;;0.50;;
41333;SDS011;27078;46.428;6.256;2023-08-07T07:47:15;3.05;;;0.80;;
41333;SDS011;27078;46.428;6.256;2023-08-07T07:49:44;2.72;;;0.60;;
41333;SDS011;27078;46.428;6.256;2023-08-07T07:52:12;1.90;;;0.70;;
41333;SDS011;27078;46.428;6.256;2023-08-07T07:54:38;2.33;;;0.70;;
41333;SDS011;27078;46.428;6.256;2023-08-07T07:57:03;3.90;;;0.80;;
41333;SDS011;27078;46.428;6.256;2023-08-07T07:59:29;2.42;;;0.70;;
41333;SDS011;27078;46.428;6.256;2023-08-07T08:01:54;1.85;;;0.63;;
41333;SDS011;27078;46.428;6.256;2023-08-07T08:04:19;1.23;;;0.50;;
41333;SDS011;27078;46.428;6.256;2023-08-07T08:06:45;2.35;;;0.60;;
41333;SDS011;27078;46.428;6.256;2023-08-07T08:09:13;2.40;;;0.57;;
41333;SDS011;27078;46.428;6.256;2023-08-07T08:11:38;1.13;;;0.50;;
41333;SDS011;27078;46.428;6.256;2023-08-07T08:14:03;1.63;;;0.52;;
41333;SDS011;27078;46.428;6.256;2023-08-07T08:16:29;1.02;;;0.40;;
41333;SDS011;27078;46.428;6.256;2023-08-07T08:18:54;2.10;;;0.70;;
41333;SDS011;27078;46.428;6.256;2023-08-07T08:21:19;1.25;;;0.60;;
41333;SDS011;27078;46.428;6.256;2023-08-07T08:23:45;1.38;;;0.50;;
41333;SDS011;27078;46.428;6.256;2023-08-07T08:26:10;1.20;;;0.50;;
41333;SDS011;27078;46.428;6.256;2023-08-07T08:28:35;2.47;;;0.60;;
41333;SDS011;27078;46.428;6.256;2023-08-07T08:31:00;1.77;;;0.40;;
41333;SDS011;27078;46.428;6.256;2023-08-07T08:33:26;3.50;;;0.60;;
41333;SDS011;27078;46.428;6.256;2023-08-07T08:35:51;1.27;;;0.47;;
41333;SDS011;27078;46.428;6.256;2023-08-07T08:38:16;2.90;;;0.50;;
41333;SDS011;27078;46.428;6.256;2023-08-07T08:40:42;2.17;;;0.55;;
41333;SDS011;27078;46.428;6.256;2023-08-07T08:43:09;2.33;;;0.60;;
41333;SDS011;27078;46.428;6.256;2023-08-07T08:45:37;2.20;;;0.60;;
41333;SDS011;27078;46.428;6.256;2023-08-07T08:48:04;1.20;;;0.40;;
41333;SDS011;27078;46.428;6.256;2023-08-07T08:50:32;2.85;;;0.50;;
41333;SDS011;27078;46.428;6.256;2023-08-07T08:52:59;1.20;;;0.50;;
41333;SDS011;27078;46.428;6.256;2023-08-07T08:55:24;1.95;;;0.60;;
41333;SDS011;27078;46.428;6.256;2023-08-07T08:57:51;2.05;;;0.50;;
41333;SDS011;27078;46.428;6.256;2023-08-07T09:00:21;2.45;;;0.50;;
41333;SDS011;27078;46.428;6.256;2023-08-07T09:02:50;3.10;;;0.60;;
41333;SDS011;27078;46.428;6.256;2023-08-07T09:05:18;5.20;;;0.60;;
41333;SDS011;27078;46.428;6.256;2023-08-07T09:07:47;2.17;;;0.50;;
41333;SDS011;27078;46.428;6.256;2023-08-07T09:10:14;1.50;;;0.70;;
41333;SDS011;27078;46.428;6.256;2023-08-07T09:12:44;2.30;;;0.50;;
41333;SDS011;27078;46.428;6.256;2023-08-07T09:15:17;1.70;;;0.60;;
41333;SDS011;27078;46.428;6.256;2023-08-07T09:17:44;1.38;;;0.55;;
41333;SDS011;27078;46.428;6.256;2023-08-07T09:20:11;1.52;;;0.55;;
41333;SDS011;27078;46.428;6.256;2023-08-07T09:22:37;1.60;;;0.52;;
41333;SDS011;27078;46.428;6.256;2023-08-07T09:25:03;2.28;;;0.57;;
41333;SDS011;27078;46.428;6.256;2023-08-07T09:27:28;2.10;;;0.60;;
41333;SDS011;27078;46.428;6.256;2023-08-07T09:29:55;2.08;;;0.40;;
41333;SDS011;27078;46.428;6.256;2023-08-07T09:32:21;1.33;;;0.60;;
41333;SDS011;27078;46.428;6.256;2023-08-07T09:34:49;1.38;;;0.50;;
41333;SDS011;27078;46.428;6.256;2023-08-07T09:37:14;2.33;;;0.52;;
41333;SDS011;27078;46.428;6.256;2023-08-07T09:39:40;2.47;;;0.68;;
41333;SDS011;27078;46.428;6.256;2023-08-07T09:42:12;1.10;;;0.38;;
41333;SDS011;27078;46.428;6.256;2023-08-07T09:44:40;1.42;;;0.50;;
41333;SDS011;27078;46.428;6.256;2023-08-07T09:47:16;2.70;;;0.60;;
41333;SDS011;27078;46.428;6.256;2023-08-07T09:49:43;1.92;;;0.43;;
41333;SDS011;27078;46.428;6.256;2023-08-07T09:52:09;1.48;;;0.40;;
41333;SDS011;27078;46.428;6.256;2023-08-07T09:54:36;1.60;;;0.50;;
41333;SDS011;27078;46.428;6.256;2023-08-07T09:57:02;2.13;;;0.57;;
41333;SDS011;27078;46.428;6.256;2023-08-07T09:59:28;2.05;;;0.60;;
41333;SDS011;27078;46.428;6.256;2023-08-07T10:01:54;1.02;;;0.50;;
41333;SDS011;27078;46.428;6.256;2023-08-07T10:04:21;1.00;;;0.50;;
41333;SDS011;27078;46.428;6.256;2023-08-07T10:06:46;3.03;;;0.60;;
41333;SDS011;27078;46.428;6.256;2023-08-07T10:09:12;1.30;;;0.50;;
41333;SDS011;27078;46.428;6.256;2023-08-07T10:11:38;1.88;;;0.50;;
41333;SDS011;27078;46.428;6.256;2023-08-07T10:14:04;1.23;;;0.40;;
41333;SDS011;27078;46.428;6.256;2023-08-07T10:16:30;1.65;;;0.70;;
41333;SDS011;27078;46.428;6.256;2023-08-07T10:18:55;1.80;;;0.93;;
41333;SDS011;27078;46.428;6.256;2023-08-07T10:21:21;1.60;;;0.90;;
41333;SDS011;27078;46.428;6.256;2023-08-07T10:23:48;1.77;;;0.80;;
41333;SDS011;27078;46.428;6.256;2023-08-07T10:26:18;2.10;;;0.50;;
41333;SDS011;27078;46.428;6.256;2023-08-07T10:28:44;1.95;;;0.60;;
41333;SDS011;27078;46.428;6.256;2023-08-07T10:31:11;1.10;;;0.55;;
41333;SDS011;27078;46.428;6.256;2023-08-07T10:33:38;1.52;;;0.63;;
41333;SDS011;27078;46.428;6.256;2023-08-07T10:36:08;1.33;;;0.70;;
41333;SDS011;27078;46.428;6.256;2023-08-07T10:38:35;1.48;;;0.52;;
41333;SDS011;27078;46.428;6.256;2023-08-07T10:41:01;0.82;;;0.50;;
41333;SDS011;27078;46.428;6.256;2023-08-07T10:43:30;0.82;;;0.38;;
41333;SDS011;27078;46.428;6.256;2023-08-07T10:46:04;2.30;;;0.40;;
41333;SDS011;27078;46.428;6.256;2023-08-07T10:48:34;1.38;;;0.50;;
41333;SDS011;27078;46.428;6.256;2023-08-07T10:56:03;0.82;;;0.32;;
41333;SDS011;27078;46.428;6.256;2023-08-07T10:58:33;1.80;;;0.50;;
41333;SDS011;27078;46.428;6.256;2023-08-07T11:01:15;1.92;;;0.40;;
41333;SDS011;27078;46.428;6.256;2023-08-07T11:03:56;1.75;;;0.40;;
41333;SDS011;27078;46.428;6.256;2023-08-07T11:06:23;1.02;;;0.40;;
41333;SDS011;27078;46.428;6.256;2023-08-07T11:08:56;1.80;;;0.45;;
41333;SDS011;27078;46.428;6.256;2023-08-07T11:11:23;1.52;;;0.40;;
41333;SDS011;27078;46.428;6.256;2023-08-07T11:13:48;1.25;;;0.45;;
41333;SDS011;27078;46.428;6.256;2023-08-07T11:16:14;1.00;;;0.30;;
41333;SDS011;27078;46.428;6.256;2023-08-07T11:18:39;0.80;;;0.30;;
41333;SDS011;27078;46.428;6.256;2023-08-07T11:21:09;1.00;;;0.40;;
41333;SDS011;27078;46.428;6.256;2023-08-07T11:23:36;1.35;;;0.40;;
41333;SDS011;27078;46.428;6.256;2023-08-07T11:26:02;0.93;;;0.30;;
41333;SDS011;27078;46.428;6.256;2023-08-07T11:28:30;1.20;;;0.30;;
41333;SDS011;27078;46.428;6.256;2023-08-07T11:30:56;0.70;;;0.25;;
41333;SDS011;27078;46.428;6.256;2023-08-07T11:33:22;0.70;;;0.20;;
41333;SDS011;27078;46.428;6.256;2023-08-07T11:35:48;1.15;;;0.40;;
41333;SDS011;27078;46.428;6.256;2023-08-07T11:38:28;1.25;;;0.30;;
41333;SDS011;27078;46.428;6.256;2023-08-07T11:40:58;0.95;;;0.20;;
41333;SDS011;27078;46.428;6.256;2023-08-07T11:43:26;0.55;;;0.30;;
41333;SDS011;27078;46.428;6.256;2023-08-07T11:45:53;0.98;;;0.25;;
41333;SDS011;27078;46.428;6.256;2023-08-07T11:48:19;1.15;;;0.20;;
41333;SDS011;27078;46.428;6.256;2023-08-07T11:50:44;0.60;;;0.22;;
41333;SDS011;27078;46.428;6.256;2023-08-07T11:53:10;0.75;;;0.20;;
41333;SDS011;27078;46.428;6.256;2023-08-07T11:55:35;0.52;;;0.20;;
41333;SDS011;27078;46.428;6.256;2023-08-07T11:58:04;2.03;;;0.40;;
41333;SDS011;27078;46.428;6.256;2023-08-07T12:00:29;0.57;;;0.22;;
41333;SDS011;27078;46.428;6.256;2023-08-07T12:02:54;0.80;;;0.30;;
41333;SDS011;27078;46.428;6.256;2023-08-07T12:05:20;1.45;;;0.30;;
41333;SDS011;27078;46.428;6.256;2023-08-07T12:07:46;0.90;;;0.20;;
41333;SDS011;27078;46.428;6.256;2023-08-07T12:10:12;1.65;;;0.20;;
41333;SDS011;27078;46.428;6.256;2023-08-07T12:12:38;0.70;;;0.30;;
41333;SDS011;27078;46.428;6.256;2023-08-07T12:15:07;1.02;;;0.28;;
41333;SDS011;27078;46.428;6.256;2023-08-07T12:17:33;1.90;;;0.35;;
41333;SDS011;27078;46.428;6.256;2023-08-07T12:20:00;1.05;;;0.20;;
41333;SDS011;27078;46.428;6.256;2023-08-07T12:22:27;0.38;;;0.20;;
41333;SDS011;27078;46.428;6.256;2023-08-07T12:24:53;1.27;;;0.30;;
41333;SDS011;27078;46.428;6.256;2023-08-07T12:27:19;1.02;;;0.30;;
41333;SDS011;27078;46.428;6.256;2023-08-07T12:29:45;1.23;;;0.30;;
41333;SDS011;27078;46.428;6.256;2023-08-07T12:32:10;0.52;;;0.20;;
41333;SDS011;27078;46.428;6.256;2023-08-07T12:34:35;1.05;;;0.30;;
41333;SDS011;27078;46.428;6.256;2023-08-07T12:37:02;2.75;;;0.40;;
41333;SDS011;27078;46.428;6.256;2023-08-07T12:39:28;0.57;;;0.28;;
41333;SDS011;27078;46.428;6.256;2023-08-07T12:41:54;1.23;;;0.20;;
41333;SDS011;27078;46.428;6.256;2023-08-07T12:44:19;0.65;;;0.30;;
41333;SDS011;27078;46.428;6.256;2023-08-07T12:46:44;0.60;;;0.20;;
41333;SDS011;27078;46.428;6.256;2023-08-07T12:49:10;1.73;;;0.28;;
41333;SDS011;27078;46.428;6.256;2023-08-07T12:51:35;0.50;;;0.20;;
41333;SDS011;27078;46.428;6.256;2023-08-07T12:54:00;1.15;;;0.30;;
41333;SDS011;27078;46.428;6.256;2023-08-07T12:56:26;2.78;;;0.30;;
41333;SDS011;27078;46.428;6.256;2023-08-07T12:58:51;0.75;;;0.35;;
41333;SDS011;27078;46.428;6.256;2023-08-07T13:01:16;1.58;;;0.20;;
41333;SDS011;27078;46.428;6.256;2023-08-07T13:03:42;1.80;;;0.20;;
41333;SDS011;27078;46.428;6.256;2023-08-07T13:06:07;0.50;;;0.20;;
41333;SDS011;27078;46.428;6.256;2023-08-07T13:08:34;0.70;;;0.20;;
41333;SDS011;27078;46.428;6.256;2023-08-07T13:11:00;0.52;;;0.20;;
41333;SDS011;27078;46.428;6.256;2023-08-07T13:13:26;0.85;;;0.25;;
41333;SDS011;27078;46.428;6.256;2023-08-07T13:15:53;0.75;;;0.30;;
41333;SDS011;27078;46.428;6.256;2023-08-07T13:18:18;0.88;;;0.20;;
41333;SDS011;27078;46.428;6.256;2023-08-07T13:20:44;0.73;;;0.20;;
41333;SDS011;27078;46.428;6.256;2023-08-07T13:23:09;0.90;;;0.20;;
41333;SDS011;27078;46.428;6.256;2023-08-07T13:25:35;2.05;;;0.30;;
41333;SDS011;27078;46.428;6.256;2023-08-07T13:28:01;1.75;;;0.30;;
41333;SDS011;27078;46.428;6.256;2023-08-07T13:30:31;0.57;;;0.20;;
41333;SDS011;27078;46.428;6.256;2023-08-07T13:32:56;0.82;;;0.20;;
41333;SDS011;27078;46.428;6.256;2023-08-07T13:35:21;1.58;;;0.30;;
41333;SDS011;27078;46.428;6.256;2023-08-07T13:37:47;0.45;;;0.20;;
41333;SDS011;27078;46.428;6.256;2023-08-07T13:40:12;0.90;;;0.25;;
41333;SDS011;27078;46.428;6.256;2023-08-07T13:42:38;0.60;;;0.30;;
41333;SDS011;27078;46.428;6.256;2023-08-07T13:45:04;0.80;;;0.22;;
41333;SDS011;27078;46.428;6.256;2023-08-07T13:47:30;1.60;;;0.38;;
41333;SDS011;27078;46.428;6.256;2023-08-07T13:49:55;0.70;;;0.30;;
41333;SDS011;27078;46.428;6.256;2023-08-07T13:52:21;0.50;;;0.20;;
41333;SDS011;27078;46.428;6.256;2023-08-07T13:54:47;0.70;;;0.10;;
41333;SDS011;27078;46.428;6.256;2023-08-07T13:57:12;2.85;;;0.43;;
41333;SDS011;27078;46.428;6.256;2023-08-07T13:59:37;0.60;;;0.20;;
41333;SDS011;27078;46.428;6.256;2023-08-07T14:02:03;0.57;;;0.25;;
41333;SDS011;27078;46.428;6.256;2023-08-07T14:04:28;2.53;;;0.40;;
41333;SDS011;27078;46.428;6.256;2023-08-07T14:06:53;1.35;;;0.30;;
41333;SDS011;27078;46.428;6.256;2023-08-07T14:09:19;0.45;;;0.20;;
41333;SDS011;27078;46.428;6.256;2023-08-07T14:11:46;1.00;;;0.40;;
41333;SDS011;27078;46.428;6.256;2023-08-07T14:14:12;1.58;;;0.30;;
41333;SDS011;27078;46.428;6.256;2023-08-07T14:16:38;0.73;;;0.20;;
41333;SDS011;27078;46.428;6.256;2023-08-07T14:19:03;0.80;;;0.20;;
41333;SDS011;27078;46.428;6.256;2023-08-07T14:21:28;1.67;;;0.30;;
41333;SDS011;27078;46.428;6.256;2023-08-07T14:23:54;0.80;;;0.20;;
41333;SDS011;27078;46.428;6.256;2023-08-07T14:26:19;1.75;;;0.30;;
41333;SDS011;27078;46.428;6.256;2023-08-07T14:28:45;0.75;;;0.30;;
41333;SDS011;27078;46.428;6.256;2023-08-07T14:31:11;1.00;;;0.30;;
41333;SDS011;27078;46.428;6.256;2023-08-07T14:33:36;0.70;;;0.20;;
41333;SDS011;27078;46.428;6.256;2023-08-07T14:36:02;0.60;;;0.20;;
41333;SDS011;27078;46.428;6.256;2023-08-07T14:38:28;0.60;;;0.20;;
41333;SDS011;27078;46.428;6.256;2023-08-07T14:40:54;0.88;;;0.20;;
41333;SDS011;27078;46.428;6.256;2023-08-07T14:43:20;2.83;;;0.40;;
41333;SDS011;27078;46.428;6.256;2023-08-07T14:45:45;1.67;;;0.32;;
41333;SDS011;27078;46.428;6.256;2023-08-07T14:48:12;0.88;;;0.20;;
41333;SDS011;27078;46.428;6.256;2023-08-07T14:50:38;0.98;;;0.30;;
41333;SDS011;27078;46.428;6.256;2023-08-07T14:53:04;0.77;;;0.20;;